createdAt,value
2019-04-04T00:01:17.844Z,1.57
2019-04-04T00:03:47.861Z,1.73
2019-04-04T00:06:19.184Z,1.73
2019-04-04T00:08:49.147Z,1.90
2019-04-04T00:11:19.421Z,2.03
2019-04-04T00:13:49.738Z,1.83
2019-04-04T00:16:20.027Z,1.90
2019-04-04T00:18:50.422Z,1.60
2019-04-04T00:21:20.431Z,2.20
2019-04-04T00:23:51.330Z,2.07
2019-04-04T00:26:21.971Z,1.80
2019-04-04T00:28:52.317Z,1.90
2019-04-04T00:31:22.311Z,1.87
2019-04-04T00:33:53.882Z,2.10
2019-04-04T00:36:24.824Z,1.90
2019-04-04T00:38:56.522Z,2.13
2019-04-04T00:41:27.845Z,1.80
2019-04-04T00:43:58.166Z,2.30
2019-04-04T00:46:28.985Z,2.10
2019-04-04T00:49:00.370Z,1.80
2019-04-04T00:51:30.376Z,2.07
2019-04-04T00:54:00.391Z,2.30
2019-04-04T00:56:31.097Z,2.30
2019-04-04T00:59:02.970Z,2.30
2019-04-04T01:01:33.698Z,2.53
2019-04-04T01:04:04.429Z,2.53
2019-04-04T01:06:34.519Z,2.47
2019-04-04T01:09:11.691Z,2.43
2019-04-04T01:11:38.124Z,2.27
2019-04-04T01:14:08.139Z,2.40
2019-04-04T01:16:38.179Z,2.13
2019-04-04T01:19:09.696Z,2.90
2019-04-04T01:21:39.971Z,2.57
2019-04-04T01:24:10.415Z,2.87
2019-04-04T01:26:40.859Z,2.83
2019-04-04T01:29:11.264Z,2.53
2019-04-04T01:31:44.141Z,2.90
2019-04-04T01:34:14.664Z,2.80
2019-04-04T01:36:44.994Z,2.87
2019-04-04T01:39:15.057Z,3.00
2019-04-04T01:41:45.969Z,2.97
2019-04-04T01:44:16.001Z,2.73
2019-04-04T01:46:47.407Z,2.87
2019-04-04T01:49:20.827Z,3.20
2019-04-04T01:51:50.120Z,3.07
2019-04-04T01:54:20.351Z,2.87
2019-04-04T01:56:50.340Z,3.00
2019-04-04T01:59:20.304Z,3.50
2019-04-04T02:01:50.284Z,3.00
2019-04-04T02:04:20.514Z,3.63
2019-04-04T02:06:50.622Z,3.63
2019-04-04T02:09:20.655Z,3.40
2019-04-04T02:11:50.662Z,3.70
2019-04-04T02:14:20.682Z,3.60
2019-04-04T02:16:51.595Z,4.10
2019-04-04T02:19:22.906Z,4.27
2019-04-04T02:21:55.164Z,4.67
2019-04-04T02:24:25.122Z,4.37
2019-04-04T02:26:55.332Z,4.20
2019-04-04T02:29:25.391Z,5.37
2019-04-04T02:31:58.209Z,5.57
2019-04-04T02:34:28.601Z,4.90
2019-04-04T02:36:58.848Z,5.40
2019-04-04T02:39:29.233Z,4.63
2019-04-04T02:42:01.308Z,4.70
2019-04-04T02:44:32.199Z,4.50
2019-04-04T02:47:03.457Z,5.13
2019-04-04T02:49:33.906Z,4.50
2019-04-04T02:52:04.130Z,4.97
2019-04-04T02:54:34.096Z,5.50
2019-04-04T02:57:07.947Z,4.80
2019-04-04T02:59:37.422Z,5.17
2019-04-04T03:02:07.543Z,5.70
2019-04-04T03:04:38.130Z,5.47
2019-04-04T03:07:08.308Z,5.60
2019-04-04T03:09:42.185Z,5.77
2019-04-04T03:12:10.379Z,6.60
2019-04-04T03:14:41.467Z,6.87
2019-04-04T03:17:11.587Z,6.47
2019-04-04T03:19:43.750Z,6.43
2019-04-04T03:22:14.617Z,6.37
2019-04-04T03:24:45.553Z,6.37
2019-04-04T03:27:15.908Z,6.70
2019-04-04T03:29:46.750Z,6.13
2019-04-04T03:32:17.413Z,6.37
2019-04-04T03:34:50.412Z,6.03
2019-04-04T03:37:20.171Z,5.07
2019-04-04T03:39:53.061Z,6.60
2019-04-04T03:42:23.558Z,6.20
2019-04-04T03:44:54.590Z,6.27
2019-04-04T03:47:24.759Z,6.30
2019-04-04T03:49:57.703Z,5.90
2019-04-04T03:52:27.339Z,6.60
2019-04-04T03:54:57.378Z,7.60
2019-04-04T03:57:28.003Z,6.20
2019-04-04T03:59:58.405Z,6.67
2019-04-04T04:02:29.078Z,6.40
2019-04-04T04:05:02.115Z,6.50
2019-04-04T04:07:32.339Z,6.03
2019-04-04T04:10:03.210Z,6.70
2019-04-04T04:12:33.495Z,6.37
2019-04-04T04:15:03.935Z,6.70
2019-04-04T04:17:36.233Z,5.77
2019-04-04T04:20:06.288Z,7.03
2019-04-04T04:22:38.321Z,6.70
2019-04-04T04:25:08.392Z,6.60
2019-04-04T04:27:38.367Z,7.07
2019-04-04T04:30:13.211Z,7.03
2019-04-04T04:32:56.976Z,6.70
2019-04-04T04:35:27.660Z,6.50
2019-04-04T04:37:59.741Z,7.03
2019-04-04T04:40:30.443Z,7.40
2019-04-04T04:43:01.040Z,6.90
2019-04-04T04:45:31.566Z,6.53
2019-04-04T04:48:02.265Z,6.93
2019-04-04T04:50:33.278Z,6.97
2019-04-04T04:53:03.671Z,6.97
2019-04-04T04:55:33.686Z,8.60
2019-04-04T04:58:04.334Z,7.40
2019-04-04T05:00:34.644Z,7.60
2019-04-04T05:03:05.778Z,7.30
2019-04-04T05:05:36.321Z,8.17
2019-04-04T05:08:09.639Z,8.83
2019-04-04T05:10:39.394Z,9.93
2019-04-04T05:13:09.485Z,9.73
2019-04-04T05:15:40.105Z,10.67
2019-04-04T05:18:12.043Z,9.57
2019-04-04T05:20:42.277Z,10.13
2019-04-04T05:23:15.200Z,10.80
2019-04-04T05:25:53.802Z,11.33
2019-04-04T05:28:16.837Z,10.17
2019-04-04T05:30:47.249Z,9.87
2019-04-04T05:33:18.375Z,9.37
2019-04-04T05:35:50.142Z,9.80
2019-04-04T05:38:20.549Z,9.93
2019-04-04T05:40:58.996Z,10.27
2019-04-04T05:43:24.838Z,9.43
2019-04-04T05:45:55.752Z,9.77
2019-04-04T05:48:28.786Z,11.87
2019-04-04T05:50:58.238Z,11.50
2019-04-04T05:53:28.999Z,11.53
2019-04-04T05:55:59.715Z,10.40
2019-04-04T05:58:30.271Z,11.63
2019-04-04T06:01:01.985Z,12.27
2019-04-04T06:03:33.482Z,11.20
2019-04-04T06:06:03.611Z,10.47
2019-04-04T06:08:33.798Z,10.67
2019-04-04T06:11:04.088Z,11.10
2019-04-04T06:13:35.064Z,12.67
2019-04-04T06:16:05.498Z,10.43
2019-04-04T06:18:35.960Z,10.43
2019-04-04T06:21:07.696Z,10.13
2019-04-04T06:23:39.177Z,10.93
2019-04-04T06:26:09.221Z,10.80
2019-04-04T06:28:39.311Z,10.73
2019-04-04T06:31:09.772Z,9.77
2019-04-04T06:33:40.232Z,10.20
2019-04-04T06:36:10.451Z,10.93
2019-04-04T06:38:40.940Z,9.43
2019-04-04T06:41:11.292Z,10.70
2019-04-04T06:43:42.081Z,10.53
2019-04-04T06:46:12.452Z,10.37
2019-04-04T06:48:42.682Z,11.20
2019-04-04T06:51:14.215Z,10.80
2019-04-04T06:53:46.717Z,10.43
2019-04-04T06:56:16.120Z,9.60
2019-04-04T06:58:46.638Z,9.27
2019-04-04T07:01:16.739Z,8.63
2019-04-04T07:03:47.879Z,9.50
2019-04-04T07:06:18.418Z,9.70
2019-04-04T07:08:48.502Z,9.77
2019-04-04T07:11:21.358Z,10.60
2019-04-04T07:13:50.848Z,10.80
2019-04-04T07:16:21.267Z,11.10
2019-04-04T07:18:52.126Z,9.93
2019-04-04T07:21:22.637Z,10.43
2019-04-04T07:23:52.794Z,10.90
2019-04-04T07:26:23.990Z,9.83
2019-04-04T07:28:54.157Z,10.13
2019-04-04T07:31:24.552Z,9.40
2019-04-04T07:33:55.173Z,10.97
2019-04-04T07:36:25.496Z,9.80
2019-04-04T07:38:58.200Z,10.47
2019-04-04T07:41:28.920Z,9.93
2019-04-04T07:43:59.466Z,9.97
2019-04-04T07:46:30.171Z,9.23
2019-04-04T07:49:00.257Z,9.53
2019-04-04T07:51:30.928Z,9.97
2019-04-04T07:54:00.984Z,9.43
2019-04-04T07:56:32.196Z,10.20
2019-04-04T07:59:03.747Z,9.60
2019-04-04T08:01:55.569Z,9.97
2019-04-04T08:04:27.156Z,9.60
2019-04-04T08:06:59.712Z,8.50
2019-04-04T08:09:30.948Z,8.93
2019-04-04T08:12:04.577Z,9.47
2019-04-04T08:14:39.557Z,9.70
2019-04-04T08:17:10.327Z,9.23
2019-04-04T08:19:42.519Z,9.63
2019-04-04T08:22:16.815Z,10.90
2019-04-04T08:24:48.798Z,9.70
2019-04-04T08:27:19.889Z,10.17
2019-04-04T08:29:50.321Z,10.33
2019-04-04T08:32:21.388Z,10.07
2019-04-04T08:34:53.998Z,9.73
2019-04-04T08:37:28.878Z,10.43
2019-04-04T08:40:02.093Z,10.30
2019-04-04T08:42:36.334Z,9.90
2019-04-04T08:45:09.996Z,10.50
2019-04-04T08:47:43.478Z,9.87
2019-04-04T08:50:17.739Z,11.77
2019-04-04T08:52:49.386Z,10.20
2019-04-04T08:55:22.755Z,10.50
2019-04-04T08:57:54.827Z,10.53
2019-04-04T09:00:29.301Z,10.83
2019-04-04T09:03:01.885Z,11.47
2019-04-04T09:05:32.474Z,9.53
2019-04-04T09:08:03.284Z,10.23
2019-04-04T09:10:35.661Z,10.43
2019-04-04T09:13:06.694Z,10.53
2019-04-04T09:15:39.051Z,9.60
2019-04-04T09:18:11.174Z,10.60
2019-04-04T09:20:43.477Z,10.73
2019-04-04T09:23:14.195Z,10.90
2019-04-04T09:25:45.092Z,11.03
2019-04-04T09:28:16.182Z,10.50
2019-04-04T09:30:48.458Z,11.30
2019-04-04T09:33:21.134Z,11.47
2019-04-04T09:35:55.547Z,10.37
2019-04-04T09:38:28.967Z,10.70
2019-04-04T09:40:58.784Z,12.17
2019-04-04T09:43:29.978Z,11.53
2019-04-04T09:46:04.058Z,10.63
2019-04-04T09:48:38.050Z,10.77
2019-04-04T09:51:08.875Z,10.33
2019-04-04T09:53:52.937Z,10.87
2019-04-04T09:56:17.468Z,14.80
2019-04-04T09:58:47.833Z,11.33
2019-04-04T10:01:18.783Z,10.20
2019-04-04T10:03:50.695Z,10.47
2019-04-04T10:06:21.099Z,11.20
2019-04-04T10:08:53.079Z,11.20
2019-04-04T10:11:24.661Z,10.37
2019-04-04T10:13:55.431Z,10.50
2019-04-04T10:16:28.970Z,10.67
2019-04-04T10:19:01.029Z,10.67
2019-04-04T10:21:31.951Z,10.00
2019-04-04T10:24:02.511Z,9.67
2019-04-04T10:26:35.411Z,10.33
2019-04-04T10:29:06.329Z,10.23
2019-04-04T10:31:38.798Z,10.37
2019-04-04T10:34:09.882Z,9.53
2019-04-04T10:36:40.398Z,10.87
2019-04-04T10:39:14.078Z,11.27
2019-04-04T10:41:46.587Z,10.20
2019-04-04T10:44:21.036Z,10.83
2019-04-04T10:46:55.214Z,9.00
2019-04-04T10:49:28.204Z,9.33
2019-04-04T10:51:58.663Z,9.97
2019-04-04T10:54:31.592Z,10.10
2019-04-04T10:57:05.307Z,10.23
2019-04-04T10:59:38.825Z,10.60
2019-04-04T11:02:10.889Z,8.67
2019-04-04T11:04:43.179Z,9.07
2019-04-04T11:07:14.338Z,9.47
2019-04-04T11:09:47.283Z,9.40
2019-04-04T11:12:18.471Z,8.33
2019-04-04T11:14:50.623Z,9.33
2019-04-04T11:17:22.460Z,8.73
2019-04-04T11:19:53.136Z,8.47
2019-04-04T11:22:23.939Z,9.13
2019-04-04T11:24:54.707Z,8.33
2019-04-04T11:27:26.775Z,8.70
2019-04-04T11:29:57.143Z,8.17
2019-04-04T11:32:30.893Z,8.20
2019-04-04T11:35:01.427Z,8.43
2019-04-04T11:37:32.110Z,8.33
2019-04-04T11:40:05.825Z,8.90
2019-04-04T11:42:36.322Z,8.60
2019-04-04T11:45:06.951Z,8.90
2019-04-04T11:47:37.562Z,9.63
2019-04-04T11:50:10.038Z,8.03
2019-04-04T11:52:43.520Z,9.13
2019-04-04T11:55:15.499Z,8.53
2019-04-04T11:57:48.074Z,8.43
2019-04-04T12:00:25.672Z,9.60
2019-04-04T12:02:59.503Z,9.30
2019-04-04T12:05:31.975Z,9.17
2019-04-04T12:08:03.504Z,8.80
2019-04-04T12:10:35.388Z,8.70
2019-04-04T12:13:08.037Z,8.43
2019-04-04T12:15:40.551Z,9.30
2019-04-04T12:18:11.587Z,8.17
2019-04-04T12:20:43.658Z,8.33
2019-04-04T12:23:14.650Z,8.07
2019-04-04T12:25:46.092Z,8.27
2019-04-04T12:28:16.896Z,8.40
2019-04-04T12:30:49.379Z,8.93
2019-04-04T12:33:22.219Z,8.43
2019-04-04T12:35:55.313Z,8.53
2019-04-04T12:38:26.976Z,8.30
2019-04-04T12:40:57.476Z,8.50
2019-04-04T12:43:32.731Z,7.63
2019-04-04T12:46:04.573Z,7.43
2019-04-04T12:48:35.518Z,8.23
2019-04-04T12:51:06.262Z,7.80
2019-04-04T12:53:38.248Z,7.13
2019-04-04T12:56:10.087Z,7.07
2019-04-04T12:58:41.861Z,7.37
2019-04-04T13:01:12.930Z,7.97
2019-04-04T13:03:43.681Z,7.57
2019-04-04T13:06:14.059Z,7.17
2019-04-04T13:08:44.883Z,7.20
2019-04-04T13:11:16.131Z,6.90
2019-04-04T13:13:46.543Z,6.53
2019-04-04T13:16:20.832Z,6.47
2019-04-04T13:18:52.666Z,6.77
2019-04-04T13:21:23.922Z,6.43
2019-04-04T13:23:56.888Z,6.23
2019-04-04T13:26:27.921Z,5.97
2019-04-04T13:29:00.588Z,5.50
2019-04-04T13:31:32.359Z,5.73
2019-04-04T13:34:03.127Z,5.60
2019-04-04T13:36:36.702Z,5.27
2019-04-04T13:39:10.469Z,5.63
2019-04-04T13:41:42.878Z,5.37
2019-04-04T13:44:15.313Z,4.77
2019-04-04T13:46:48.447Z,5.23
2019-04-04T13:49:19.484Z,4.87
2019-04-04T13:51:53.091Z,4.77
2019-04-04T13:54:25.690Z,4.40
2019-04-04T13:56:57.311Z,4.83
2019-04-04T13:59:27.755Z,4.60
2019-04-04T14:01:58.473Z,4.60
2019-04-04T14:04:29.604Z,4.63
2019-04-04T14:07:02.432Z,4.10
2019-04-04T14:09:35.214Z,4.60
2019-04-04T14:12:06.019Z,4.17
2019-04-04T14:14:38.250Z,5.00
2019-04-04T14:17:08.816Z,4.20
2019-04-04T14:19:41.199Z,4.33
2019-04-04T14:22:15.584Z,4.33
2019-04-04T14:24:46.277Z,4.77
2019-04-04T14:27:16.563Z,4.13
2019-04-04T14:29:49.082Z,4.17
2019-04-04T14:32:21.127Z,4.50
2019-04-04T14:34:55.866Z,4.40
2019-04-04T14:37:28.101Z,4.33
2019-04-04T14:39:58.948Z,4.90
2019-04-04T14:42:29.721Z,5.13
2019-04-04T14:45:02.255Z,4.43
2019-04-04T14:47:34.558Z,5.07
2019-04-04T14:50:05.502Z,4.87
2019-04-04T14:52:39.462Z,4.50
2019-04-04T14:55:09.461Z,4.73
2019-04-04T14:57:41.991Z,4.93
2019-04-04T15:00:15.865Z,4.17
2019-04-04T15:02:48.156Z,4.37
2019-04-04T15:05:19.802Z,4.53
2019-04-04T15:07:50.238Z,4.27
2019-04-04T15:10:22.808Z,4.47
2019-04-04T15:12:54.406Z,4.20
2019-04-04T15:15:26.681Z,3.80
2019-04-04T15:17:58.121Z,3.70
2019-04-04T15:20:29.528Z,3.83
2019-04-04T15:22:59.955Z,3.57
2019-04-04T15:25:30.786Z,3.50
2019-04-04T15:28:01.231Z,4.00
2019-04-04T15:30:32.766Z,3.60
2019-04-04T15:33:03.294Z,3.70
2019-04-04T15:35:33.979Z,4.33
2019-04-04T15:38:06.171Z,4.13
2019-04-04T15:40:37.268Z,4.30
2019-04-04T15:43:07.688Z,4.00
2019-04-04T15:45:40.995Z,3.57
2019-04-04T15:48:13.605Z,4.03
2019-04-04T15:50:44.067Z,4.03
2019-04-04T15:53:14.831Z,4.50
2019-04-04T15:55:47.329Z,4.17
2019-04-04T15:58:17.960Z,4.23
2019-04-04T16:00:51.356Z,4.60
2019-04-04T16:03:21.788Z,4.43
2019-04-04T16:05:54.043Z,4.10
2019-04-04T16:08:24.888Z,4.40
2019-04-04T16:10:59.757Z,4.30
2019-04-04T16:13:32.809Z,4.60
2019-04-04T16:16:03.625Z,4.00
2019-04-04T16:18:35.376Z,4.80
2019-04-04T16:21:06.859Z,3.80
2019-04-04T16:23:39.256Z,4.23
2019-04-04T16:26:12.206Z,3.97
2019-04-04T16:28:44.133Z,4.47
2019-04-04T16:31:14.841Z,3.63
2019-04-04T16:33:45.326Z,4.20
2019-04-04T16:36:18.075Z,3.83
2019-04-04T16:38:50.966Z,3.67
2019-04-04T16:41:23.771Z,3.40
2019-04-04T16:43:54.141Z,3.20
2019-04-04T16:46:25.979Z,3.93
2019-04-04T16:48:58.177Z,3.03
2019-04-04T16:51:31.472Z,2.97
2019-04-04T16:54:03.247Z,3.47
2019-04-04T16:56:34.125Z,3.13
2019-04-04T16:59:05.918Z,3.17
2019-04-04T17:01:36.398Z,3.07
2019-04-04T17:04:06.772Z,2.87
2019-04-04T17:06:40.425Z,2.53
2019-04-04T17:09:10.935Z,2.83
2019-04-04T17:11:42.762Z,2.70
2019-04-04T17:14:16.038Z,2.60
2019-04-04T17:16:47.577Z,2.67
2019-04-04T17:19:19.468Z,3.03
2019-04-04T17:21:50.020Z,2.67
2019-04-04T17:24:21.537Z,2.60
2019-04-04T17:26:57.265Z,2.53
2019-04-04T17:29:26.699Z,2.40
2019-04-04T17:32:01.234Z,2.70
2019-04-04T17:34:31.842Z,2.57
2019-04-04T17:37:02.825Z,2.63
2019-04-04T17:39:35.574Z,2.77
2019-04-04T17:42:06.102Z,2.70
2019-04-04T17:44:40.148Z,2.17
2019-04-04T17:47:12.794Z,2.20
2019-04-04T17:49:43.270Z,2.57
2019-04-04T17:52:15.009Z,2.20
2019-04-04T17:54:46.455Z,2.20
2019-04-04T17:57:16.882Z,2.50
2019-04-04T17:59:47.808Z,2.50
2019-04-04T18:02:19.546Z,2.50
2019-04-04T18:04:51.553Z,2.47
2019-04-04T18:07:22.297Z,2.30
2019-04-04T18:09:53.605Z,2.53
2019-04-04T18:12:25.603Z,2.30
2019-04-04T18:14:57.427Z,2.40
2019-04-04T18:17:28.163Z,2.50
2019-04-04T18:19:59.929Z,2.30
2019-04-04T18:22:31.379Z,2.60
2019-04-04T18:25:03.255Z,2.47
2019-04-04T18:27:37.652Z,2.40
2019-04-04T18:30:10.768Z,2.50
2019-04-04T18:32:42.402Z,2.80
2019-04-04T18:35:15.411Z,3.00
2019-04-04T18:37:48.858Z,2.80
2019-04-04T18:40:19.430Z,2.90
2019-04-04T18:42:53.613Z,3.07
2019-04-04T18:45:24.221Z,3.83
2019-04-04T18:47:56.200Z,3.63
2019-04-04T18:50:26.578Z,4.00
2019-04-04T18:53:01.018Z,3.70
2019-04-04T18:55:31.960Z,3.53
2019-04-04T18:58:04.190Z,4.30
2019-04-04T19:00:34.841Z,4.50
2019-04-04T19:03:05.715Z,5.27
2019-04-04T19:05:36.637Z,4.97
2019-04-04T19:08:08.215Z,5.13
2019-04-04T19:10:39.822Z,6.27
2019-04-04T19:13:11.355Z,5.90
2019-04-04T19:15:43.259Z,5.87
2019-04-04T19:18:14.059Z,5.93
2019-04-04T19:20:47.097Z,5.97
2019-04-04T19:23:17.904Z,6.77
2019-04-04T19:25:49.388Z,6.23
2019-04-04T19:28:21.819Z,6.27
2019-04-04T19:30:54.053Z,6.93
2019-04-04T19:33:26.194Z,6.67
2019-04-04T19:36:01.131Z,6.30
2019-04-04T19:38:31.943Z,6.80
2019-04-04T19:41:03.583Z,6.97
2019-04-04T19:43:36.409Z,7.10
2019-04-04T19:46:07.643Z,6.10
2019-04-04T19:48:39.978Z,7.17
2019-04-04T19:51:14.185Z,6.70
2019-04-04T19:53:46.997Z,6.97
2019-04-04T19:56:19.077Z,7.10
2019-04-04T19:58:51.639Z,7.27
2019-04-04T20:01:22.474Z,7.83
2019-04-04T20:03:55.055Z,8.37
2019-04-04T20:06:27.312Z,7.57
2019-04-04T20:08:57.867Z,7.60
2019-04-04T20:11:29.847Z,7.60
2019-04-04T20:14:00.385Z,8.60
2019-04-04T20:16:31.287Z,7.93
2019-04-04T20:19:03.156Z,8.23
2019-04-04T20:21:35.013Z,8.77
2019-04-04T20:24:06.181Z,8.40
2019-04-04T20:26:36.554Z,9.13
2019-04-04T20:29:07.558Z,8.67
2019-04-04T20:31:41.498Z,9.10
2019-04-04T20:34:12.256Z,8.83
2019-04-04T20:36:44.146Z,8.67
2019-04-04T20:39:14.978Z,9.40
2019-04-04T20:41:47.545Z,9.00
2019-04-04T20:44:18.252Z,10.27
2019-04-04T20:46:50.458Z,10.53
2019-04-04T20:49:22.219Z,9.43
2019-04-04T20:51:54.386Z,11.40
2019-04-04T20:54:26.685Z,9.83
2019-04-04T20:57:01.091Z,9.07
2019-04-04T20:59:32.575Z,10.37
2019-04-04T21:02:04.808Z,9.97
2019-04-04T21:04:38.758Z,10.80
2019-04-04T21:07:10.721Z,9.10
2019-04-04T21:09:41.480Z,8.67
2019-04-04T21:12:13.171Z,8.50
2019-04-04T21:14:44.647Z,8.10
2019-04-04T21:17:15.065Z,7.73
2019-04-04T21:19:46.078Z,7.53
2019-04-04T21:22:27.361Z,7.40
2019-04-04T21:24:51.860Z,6.53
2019-04-04T21:27:24.181Z,6.67
2019-04-04T21:29:56.181Z,6.60
2019-04-04T21:32:26.611Z,6.03
2019-04-04T21:34:57.824Z,6.90
2019-04-04T21:37:28.577Z,6.80
2019-04-04T21:39:58.917Z,5.70
2019-04-04T21:42:31.602Z,5.83
2019-04-04T21:45:04.870Z,6.30
2019-04-04T21:47:36.675Z,6.40
2019-04-04T21:50:07.858Z,6.63
2019-04-04T21:52:39.472Z,7.27
2019-04-04T21:55:11.605Z,6.73
2019-04-04T21:57:42.550Z,6.63
2019-04-04T22:00:14.949Z,7.23
2019-04-04T22:02:48.305Z,6.67
2019-04-04T22:05:19.306Z,6.77
2019-04-04T22:07:50.826Z,6.57
2019-04-04T22:10:22.670Z,6.77
2019-04-04T22:12:54.629Z,7.40
2019-04-04T22:15:26.794Z,6.87
2019-04-04T22:17:59.814Z,7.10
2019-04-04T22:20:30.216Z,6.17
2019-04-04T22:23:02.155Z,6.53
2019-04-04T22:25:33.145Z,6.80
2019-04-04T22:28:03.704Z,6.57
2019-04-04T22:30:34.353Z,7.03
2019-04-04T22:33:06.597Z,6.97
2019-04-04T22:35:38.084Z,6.57
2019-04-04T22:38:08.753Z,7.70
2019-04-04T22:40:39.495Z,7.23
2019-04-04T22:43:09.917Z,7.60
2019-04-04T22:45:42.213Z,7.10
2019-04-04T22:48:12.543Z,7.10
2019-04-04T22:50:43.359Z,6.80
2019-04-04T22:53:15.244Z,8.07
2019-04-04T22:55:47.762Z,7.67
2019-04-04T22:58:28.297Z,8.23
2019-04-04T23:00:53.749Z,8.63
2019-04-04T23:03:27.596Z,8.20
2019-04-04T23:06:01.578Z,9.23
2019-04-04T23:08:33.890Z,9.23
2019-04-04T23:11:06.097Z,8.43
2019-04-04T23:13:38.265Z,8.67
2019-04-04T23:16:09.120Z,8.13
2019-04-04T23:18:40.189Z,8.70
2019-04-04T23:21:11.446Z,7.83
2019-04-04T23:23:42.285Z,8.53
2019-04-04T23:26:14.613Z,8.47
2019-04-04T23:28:45.502Z,8.60
2019-04-04T23:31:18.454Z,8.60
2019-04-04T23:33:51.645Z,8.17
2019-04-04T23:36:34.425Z,8.53
2019-04-04T23:38:59.820Z,8.90
2019-04-04T23:41:30.739Z,8.40
2019-04-04T23:44:02.516Z,7.87
